.
WxDataArchive / Data Records for 2012-09-15
2012-09-14 September 2012 2012-09-16

Data Records for Saturday, 15 September 2012

Time	Temp	Chill	HIndex	Humid	Dewpt	 Wind 	HiWind	WindDir	Rain 	Barom 
-----	----	-----	------	-----	-----	------	------	-------	-----	----- 
00:00	54.4	54.4	54.4	77	47.3	0	0	---	0.00	30.302 
00:05	54.2	54.2	54.2	77	47.1	0	0	---	0.00	30.302 
00:10	54.1	54.1	54.1	77	47.0	0	0	---	0.00	30.302 
00:15	53.9	53.9	53.9	77	46.9	0	0	---	0.00	30.294 
00:20	53.6	53.6	53.6	78	46.9	0	0	---	0.00	30.294 
00:25	53.5	53.5	53.5	78	46.8	0	0	---	0.00	30.294 
00:30	53.3	53.3	53.3	79	47.0	0	0	---	0.00	30.297 
00:35	53.1	53.1	53.1	79	46.8	0	0	---	0.00	30.297 
00:40	52.9	52.9	52.9	80	46.9	0	0	---	0.00	30.297 
00:45	52.9	52.9	52.9	81	47.2	0	0	---	0.00	30.296 
00:50	52.8	52.8	52.8	81	47.1	0	0	---	0.00	30.296 
00:55	52.5	52.5	52.5	81	46.8	0	0	---	0.00	30.296 
01:00	52.3	52.3	52.3	82	47.0	0	0	---	0.00	30.295 
01:05	52.3	52.3	52.3	82	47.0	0	0	---	0.00	30.295 
01:10	52.3	52.3	52.3	83	47.3	0	0	---	0.00	30.295 
01:15	52.3	52.3	52.3	83	47.3	0	0	---	0.00	30.295 
01:20	52.2	52.2	52.2	84	47.5	0	0	---	0.00	30.295 
01:25	52.2	52.2	52.2	84	47.5	0	0	---	0.00	30.295 
01:30	52.2	52.2	52.2	84	47.5	0	0	---	0.00	30.296 
01:35	52.2	52.2	52.2	84	47.5	0	0	---	0.00	30.296 
01:40	52.2	52.2	52.2	84	47.5	0	0	---	0.00	30.296 
01:45	52.0	52.0	52.0	84	47.3	0	0	---	0.00	30.297 
01:50	51.9	51.9	51.9	84	47.2	0	0	---	0.00	30.297 
01:55	51.7	51.7	51.7	84	47.0	0	0	---	0.00	30.297 
02:00	51.6	51.6	51.6	84	46.9	0	0	---	0.00	30.305 
02:05	51.6	51.6	51.6	85	47.2	0	0	---	0.00	30.305 
02:10	51.4	51.4	51.4	85	47.0	0	0	---	0.00	30.305 
02:15	51.3	51.3	51.3	85	46.9	0	0	---	0.00	30.301 
02:20	51.3	51.3	51.3	85	46.9	0	0	---	0.00	30.301 
02:25	51.3	51.3	51.3	86	47.3	0	0	---	0.00	30.301 
02:30	51.3	51.3	51.3	85	46.9	0	0	---	0.00	30.303 
02:35	51.3	51.3	51.3	85	46.9	0	0	---	0.00	30.303 
02:40	51.1	51.1	51.1	85	46.7	0	0	---	0.00	30.303 
02:45	51.1	51.1	51.1	85	46.7	0	0	---	0.00	30.301 
02:50	50.8	50.8	50.8	85	46.5	0	0	---	0.00	30.301 
02:55	50.7	50.7	50.7	85	46.4	0	0	---	0.00	30.301 
03:00	50.7	50.7	50.7	85	46.4	0	0	---	0.00	30.296 
03:05	50.5	50.5	50.5	85	46.2	0	0	---	0.00	30.296 
03:10	50.4	50.4	50.4	85	46.1	0	0	---	0.00	30.296 
03:15	50.2	50.2	50.2	85	45.9	0	0	---	0.00	30.291 
03:20	50.2	50.2	50.2	86	46.2	0	0	---	0.00	30.291 
03:25	50.1	50.1	50.1	86	46.1	0	0	---	0.00	30.291 
03:30	50.1	50.1	50.1	86	46.1	0	0	---	0.00	30.290 
03:35	50.1	50.1	50.1	86	46.1	0	0	---	0.00	30.290 
03:40	50.1	50.1	50.1	86	46.1	0	0	---	0.00	30.290 
03:45	50.1	50.1	50.1	86	46.1	0	0	---	0.00	30.289 
03:50	50.2	50.2	50.2	86	46.2	0	0	---	0.00	30.289 
03:55	50.2	50.2	50.2	86	46.2	0	0	---	0.00	30.289 
04:00	50.2	50.2	50.2	86	46.2	0	0	---	0.00	30.287 
04:05	50.1	50.1	50.1	86	46.1	0	0	---	0.00	30.287 
04:10	50.1	50.1	50.1	86	46.1	0	0	---	0.00	30.287 
04:15	50.1	50.1	50.1	86	46.1	0	0	---	0.00	30.286 
04:20	49.9	49.9	49.9	86	45.9	0	0	---	0.00	30.286 
04:25	49.9	49.9	49.9	86	45.9	0	0	---	0.00	30.286 
04:30	49.8	49.8	49.8	86	45.8	0	0	---	0.00	30.287 
04:35	49.6	49.6	49.6	86	45.6	0	0	---	0.00	30.287 
04:40	49.5	49.5	49.5	86	45.5	0	0	---	0.00	30.287 
04:45	49.4	49.4	49.4	87	45.7	0	0	---	0.00	30.288 
04:50	49.4	49.4	49.4	87	45.7	0	0	---	0.00	30.288 
04:55	49.2	49.2	49.2	87	45.5	0	0	---	0.00	30.288 
05:00	49.2	49.2	49.2	88	45.8	0	0	---	0.00	30.287 
05:05	49.1	49.1	49.1	88	45.7	0	0	---	0.00	30.287 
05:10	49.1	49.1	49.1	88	45.7	0	0	---	0.00	30.287 
05:15	48.9	48.9	48.9	88	45.5	0	0	---	0.00	30.287 
05:20	48.8	48.8	48.8	88	45.4	0	0	---	0.00	30.287 
05:25	48.8	48.8	48.8	88	45.4	0	0	---	0.00	30.287 
05:30	48.6	48.6	48.6	88	45.2	0	0	---	0.00	30.292 
05:35	48.5	48.5	48.5	89	45.4	0	0	---	0.00	30.292 
05:40	48.3	48.3	48.3	89	45.2	0	0	---	0.00	30.292 
05:45	48.2	48.2	48.2	89	45.1	0	0	---	0.00	30.301 
05:50	48.2	48.2	48.2	89	45.1	0	0	---	0.00	30.301 
05:55	48.0	48.0	48.0	89	44.9	0	0	---	0.00	30.301 
06:00	47.9	47.9	47.9	89	44.8	0	0	---	0.00	30.302 
06:05	47.7	47.7	47.7	89	44.6	0	0	---	0.00	30.302 
06:10	47.7	47.7	47.7	90	44.9	0	0	---	0.00	30.302 
06:15	47.7	47.7	47.7	90	44.9	0	0	---	0.00	30.304 
06:20	47.6	47.6	47.6	90	44.8	0	0	---	0.00	30.304 
06:25	47.6	47.6	47.6	90	44.8	0	0	---	0.00	30.304 
06:30	47.4	47.4	47.4	90	44.6	0	0	---	0.00	30.305 
06:35	47.3	47.3	47.3	91	44.8	0	0	---	0.00	30.305 
06:40	47.3	47.3	47.3	91	44.8	0	0	---	0.00	30.305 
06:45	47.1	47.1	47.1	91	44.6	0	0	---	0.00	30.307 
06:50	47.0	47.0	47.0	91	44.5	0	0	---	0.00	30.307 
06:55	47.0	47.0	47.0	91	44.5	0	0	---	0.00	30.307 
07:00	47.0	47.0	47.0	91	44.5	0	0	---	0.00	30.308 
07:05	47.0	47.0	47.0	91	44.5	0	0	---	0.00	30.308 
07:10	46.8	46.8	46.8	92	44.6	0	0	---	0.00	30.308 
07:15	46.8	46.8	46.8	92	44.6	0	0	---	0.00	30.312 
07:20	46.8	46.8	46.8	92	44.6	0	0	---	0.00	30.312 
07:25	46.8	46.8	46.8	92	44.6	0	0	---	0.00	30.312 
07:30	46.7	46.7	46.7	92	44.5	0	0	---	0.00	30.316 
07:35	46.7	46.7	46.7	92	44.5	0	0	---	0.00	30.316 
07:40	46.7	46.7	46.7	92	44.5	0	0	---	0.00	30.316 
07:45	46.5	46.5	46.5	92	44.3	0	0	---	0.00	30.322 
07:50	46.5	46.5	46.5	92	44.3	0	0	---	0.00	30.322 
07:55	46.7	46.7	46.7	92	44.5	0	0	---	0.00	30.322 
08:00	47.0	47.0	47.0	93	45.1	0	0	---	0.00	30.325 
08:05	47.1	47.1	47.1	93	45.2	0	0	---	0.00	30.325 
08:10	47.4	47.4	47.4	93	45.5	0	0	---	0.00	30.325 
08:15	47.6	47.6	47.6	93	45.7	0	0	---	0.00	30.327 
08:20	47.9	47.9	47.9	93	46.0	0	0	---	0.00	30.327 
08:25	48.3	48.3	48.3	93	46.4	0	0	---	0.00	30.327 
08:30	49.1	49.1	49.1	94	47.4	0	0	---	0.00	30.324 
08:35	49.8	49.8	49.8	94	48.1	0	0	---	0.00	30.324 
08:40	50.4	50.4	50.4	94	48.7	0	0	---	0.00	30.324 
08:45	51.0	51.0	51.0	93	49.0	0	0	---	0.00	30.323 
08:50	51.6	51.6	51.6	92	49.4	0	0	---	0.00	30.323 
08:55	52.2	52.2	52.2	91	49.7	0	0	---	0.00	30.323 
09:00	52.6	52.6	52.6	90	49.7	0	0	---	0.00	30.318 
09:05	53.1	53.1	53.1	87	49.3	0	0	---	0.00	30.318 
09:10	53.6	53.6	53.6	84	48.9	0	1	292	0.00	30.318 
09:15	54.4	54.4	54.4	80	48.4	0	1	292	0.00	30.324 
09:20	55.0	55.0	55.0	77	47.9	0	1	292	0.00	30.324 
09:25	55.4	55.4	55.4	77	48.3	0	1	292	0.00	30.324 
09:30	55.7	55.7	55.7	76	48.3	0	1	292	0.00	30.324 
09:35	56.0	56.0	56.0	75	48.2	0	0	---	0.00	30.324 
09:40	56.3	56.3	56.3	73	47.8	0	1	292	0.00	30.324 
09:45	56.6	56.6	56.6	73	48.0	0	0	---	0.00	30.323 
09:50	57.0	57.0	57.0	71	47.7	0	0	---	0.00	30.323 
09:55	57.5	57.5	57.5	69	47.4	0	3	292	0.00	30.323 
10:00	58.0	58.0	58.0	69	47.9	0	2	292	0.00	30.324 
10:05	58.6	58.6	58.6	67	47.7	0	1	292	0.00	30.324 
10:10	59.2	59.2	59.2	68	48.6	0	1	292	0.00	30.324 
10:15	59.9	59.9	59.9	66	48.5	0	1	292	0.00	30.324 
10:20	60.7	60.7	60.7	65	48.9	0	1	292	0.00	30.324 
10:25	61.5	61.5	61.5	63	48.8	0	1	292	0.00	30.324 
10:30	62.3	62.3	62.3	60	48.2	0	1	292	0.00	30.322 
10:35	62.7	62.7	62.7	59	48.2	0	2	292	0.00	30.322 
10:40	63.7	63.7	63.7	56	47.7	0	1	292	0.00	30.322 
10:45	64.5	64.5	64.5	53	47.0	1	3	292	0.00	30.320 
10:50	65.0	65.0	65.0	53	47.4	0	2	292	0.00	30.320 
10:55	65.3	65.3	65.3	53	47.7	0	2	158	0.00	30.320 
11:00	65.5	65.5	65.5	51	46.9	1	4	135	0.00	30.317 
11:05	65.5	65.5	65.5	51	46.9	1	5	135	0.00	30.317 
11:10	65.3	65.3	65.3	53	47.7	1	3	68	0.00	30.317 
11:15	66.0	66.0	66.0	47	45.2	1	4	68	0.00	30.316 
11:20	66.3	66.3	66.3	48	46.0	2	5	68	0.00	30.316 
11:25	66.6	66.6	66.6	48	46.3	0	2	45	0.00	30.316 
11:30	67.3	67.3	67.3	48	46.9	0	2	45	0.00	30.318 
11:35	67.9	67.9	67.9	46	46.3	1	4	45	0.00	30.318 
11:40	68.4	68.4	68.4	44	45.6	1	3	135	0.00	30.318 
11:45	68.8	68.8	68.8	45	46.6	0	2	158	0.00	30.308 
11:50	68.9	68.9	68.9	44	46.1	0	2	158	0.00	30.308 
11:55	69.1	69.1	69.1	43	45.7	0	2	158	0.00	30.308 
12:00	69.6	69.6	69.6	42	45.5	0	1	158	0.00	30.305 
12:05	69.8	69.8	69.8	45	47.5	0	3	158	0.00	30.305 
12:10	69.8	69.8	69.8	46	48.1	0	2	158	0.00	30.305 
12:15	70.1	70.1	70.1	41	45.3	1	3	112	0.00	30.302 
12:20	70.3	70.3	70.3	39	44.2	1	3	112	0.00	30.302 
12:25	70.3	70.3	70.3	43	46.7	1	3	112	0.00	30.302 
12:30	69.8	69.8	69.8	36	41.6	2	4	68	0.00	30.296 
12:35	69.3	69.3	69.3	40	43.9	1	3	68	0.00	30.296 
12:40	69.4	69.4	69.4	39	43.4	1	5	68	0.00	30.296 
12:45	69.4	69.4	69.4	40	44.0	2	4	90	0.00	30.291 
12:50	69.4	69.4	69.4	40	44.0	1	3	90	0.00	30.291 
12:55	69.6	69.6	69.6	41	44.8	1	5	112	0.00	30.291 
13:00	69.8	69.8	69.8	38	43.0	1	4	90	0.00	30.288 
13:05	69.8	69.8	69.8	39	43.7	1	3	90	0.00	30.288 
13:10	70.3	70.3	70.3	37	42.8	1	4	90	0.00	30.288 
13:15	70.4	70.4	70.4	33	39.9	1	3	112	0.00	30.285 
13:20	70.8	70.8	70.8	32	39.5	1	3	112	0.00	30.285 
13:25	70.9	70.9	70.9	33	40.3	0	2	112	0.00	30.285 
13:30	71.3	71.3	71.3	39	45.1	0	1	112	0.00	30.278 
13:35	71.6	71.6	71.6	38	44.6	1	5	112	0.00	30.278 
13:40	71.8	71.8	71.8	38	44.8	0	3	112	0.00	30.278 
13:45	72.0	72.0	72.0	35	42.8	1	3	112	0.00	30.273 
13:50	71.6	71.6	71.6	41	46.6	1	3	112	0.00	30.273 
13:55	71.8	71.8	71.8	35	42.7	0	2	112	0.00	30.273 
14:00	72.1	72.1	72.1	38	45.1	1	4	112	0.00	30.266 
14:05	71.5	71.5	71.5	34	41.6	1	4	112	0.00	30.266 
14:10	71.6	71.6	71.6	36	43.2	0	2	68	0.00	30.266 
14:15	71.8	71.8	71.8	39	45.5	0	2	68	0.00	30.257 
14:20	72.0	72.0	72.0	34	42.1	1	4	68	0.00	30.257 
14:25	72.0	72.0	72.0	39	45.7	1	3	68	0.00	30.257 
14:30	72.5	72.5	72.5	35	43.3	0	2	68	0.00	30.253 
14:35	73.0	73.0	73.0	38	45.9	0	2	68	0.00	30.253 
14:40	72.7	72.7	72.7	35	43.5	2	5	90	0.00	30.253 
14:45	72.3	72.3	72.3	39	45.9	1	6	112	0.00	30.242 
14:50	72.1	72.1	72.1	36	43.7	0	2	112	0.00	30.242 
14:55	72.3	72.3	72.3	35	43.1	0	1	112	0.00	30.242 
15:00	72.7	72.7	72.7	40	47.0	0	1	112	0.00	30.236 
15:05	72.7	72.7	72.7	34	42.7	1	2	112	0.00	30.236 
15:10	72.7	72.7	72.7	37	44.9	0	2	112	0.00	30.236 
15:15	72.7	72.7	72.7	40	47.0	1	3	112	0.00	30.233 
15:20	72.8	72.8	72.8	36	44.3	0	4	90	0.00	30.233 
15:25	73.0	73.0	73.0	38	45.9	0	2	90	0.00	30.233 
15:30	73.0	73.0	73.0	39	46.6	0	1	90	0.00	30.227 
15:35	73.0	73.0	73.0	37	45.2	1	4	90	0.00	30.227 
15:40	72.3	72.3	72.3	35	43.1	3	5	90	0.00	30.227 
15:45	72.1	72.1	72.1	40	46.4	1	4	90	0.00	30.223 
15:50	72.0	72.0	72.0	38	45.0	1	6	90	0.00	30.223 
15:55	72.1	72.1	72.1	44	49.0	0	2	90	0.00	30.223 
16:00	72.3	72.3	72.3	37	44.6	1	3	90	0.00	30.217 
16:05	72.5	72.5	72.5	39	46.1	0	2	90	0.00	30.217 
16:10	72.5	72.5	72.5	37	44.7	1	3	90	0.00	30.217 
16:15	72.1	72.1	72.1	35	42.9	1	3	90	0.00	30.210 
16:20	72.1	72.1	72.1	36	43.7	1	3	90	0.00	30.210 
16:25	71.8	71.8	71.8	36	43.4	1	4	90	0.00	30.210 
16:30	71.8	71.8	71.8	36	43.4	0	2	90	0.00	30.198 
16:35	72.0	72.0	72.0	36	43.6	0	1	90	0.00	30.198 
16:40	72.3	72.3	72.3	35	43.1	0	2	90	0.00	30.198 
16:45	72.3	72.3	72.3	39	45.9	1	4	90	0.00	30.198 
16:50	72.3	72.3	72.3	35	43.1	1	2	90	0.00	30.198 
16:55	72.5	72.5	72.5	37	44.7	1	2	90	0.00	30.198 
17:00	72.3	72.3	72.3	36	43.8	1	3	90	0.00	30.195 
17:05	72.1	72.1	72.1	35	42.9	0	1	90	0.00	30.195 
17:10	72.1	72.1	72.1	37	44.4	0	1	90	0.00	30.195 
17:15	72.1	72.1	72.1	36	43.7	0	3	90	0.00	30.192 
17:20	72.1	72.1	72.1	38	45.1	0	2	90	0.00	30.192 
17:25	72.1	72.1	72.1	37	44.4	1	2	90	0.00	30.192 
17:30	72.0	72.0	72.0	38	45.0	1	3	90	0.00	30.191 
17:35	71.8	71.8	71.8	40	46.2	1	4	90	0.00	30.191 
17:40	71.6	71.6	71.6	38	44.6	1	3	90	0.00	30.191 
17:45	71.5	71.5	71.5	38	44.5	1	3	90	0.00	30.191 
17:50	71.5	71.5	71.5	38	44.5	0	2	90	0.00	30.191 
17:55	71.3	71.3	71.3	37	43.7	0	2	90	0.00	30.191 
18:00	71.3	71.3	71.3	39	45.1	1	3	90	0.00	30.195 
18:05	71.3	71.3	71.3	39	45.1	0	2	90	0.00	30.195 
18:10	71.3	71.3	71.3	39	45.1	0	2	90	0.00	30.195 
18:15	71.1	71.1	71.1	42	46.8	1	3	90	0.00	30.186 
18:20	70.8	70.8	70.8	41	45.9	1	5	90	0.00	30.186 
18:25	70.6	70.6	70.6	39	44.4	1	3	90	0.00	30.186 
18:30	70.6	70.6	70.6	39	44.4	1	4	90	0.00	30.180 
18:35	70.4	70.4	70.4	40	44.9	0	2	90	0.00	30.180 
18:40	70.3	70.3	70.3	41	45.5	0	2	90	0.00	30.180 
18:45	70.3	70.3	70.3	41	45.5	0	2	90	0.00	30.182 
18:50	70.1	70.1	70.1	41	45.3	1	3	90	0.00	30.182 
18:55	69.9	69.9	69.9	41	45.1	0	2	90	0.00	30.182 
19:00	69.9	69.9	69.9	41	45.1	1	2	90	0.00	30.181 
19:05	69.8	69.8	69.8	41	45.0	0	2	90	0.00	30.181 
19:10	69.6	69.6	69.6	42	45.5	1	3	90	0.00	30.181 
19:15	69.4	69.4	69.4	43	45.9	1	2	90	0.00	30.181 
19:20	69.1	69.1	69.1	45	46.9	0	1	90	0.00	30.181 
19:25	68.8	68.8	68.8	45	46.6	0	1	90	0.00	30.181 
19:30	68.4	68.4	68.4	47	47.4	0	0	---	0.00	30.180 
19:35	68.1	68.1	68.1	47	47.1	0	0	---	0.00	30.180 
19:40	67.6	67.6	67.6	48	47.2	0	0	---	0.00	30.180 
19:45	67.1	67.1	67.1	48	46.7	0	0	---	0.00	30.170 
19:50	66.6	66.6	66.6	50	47.4	0	0	---	0.00	30.170 
19:55	66.1	66.1	66.1	53	48.5	0	0	---	0.00	30.170 
20:00	65.8	65.8	65.8	53	48.2	0	0	---	0.00	30.181 
20:05	65.3	65.3	65.3	54	48.2	0	0	---	0.00	30.181 
20:10	64.8	64.8	64.8	55	48.2	0	0	---	0.00	30.181 
20:15	64.3	64.3	64.3	56	48.3	0	0	---	0.00	30.169 
20:20	63.9	63.9	63.9	58	48.8	0	0	---	0.00	30.169 
20:25	63.4	63.4	63.4	58	48.4	0	0	---	0.00	30.169 
20:30	62.9	62.9	62.9	59	48.3	0	0	---	0.00	30.168 
20:35	62.4	62.4	62.4	59	47.9	0	0	---	0.00	30.168 
20:40	62.0	62.0	62.0	59	47.5	0	0	---	0.00	30.168 
20:45	61.5	61.5	61.5	61	47.9	0	0	---	0.00	30.172 
20:50	61.2	61.2	61.2	62	48.1	0	0	---	0.00	30.172 
20:55	60.9	60.9	60.9	64	48.6	0	0	---	0.00	30.172 
21:00	60.7	60.7	60.7	64	48.4	0	0	---	0.00	30.177 
21:05	60.4	60.4	60.4	65	48.6	0	0	---	0.00	30.177 
21:10	60.2	60.2	60.2	65	48.4	0	0	---	0.00	30.177 
21:15	59.9	59.9	59.9	66	48.5	0	0	---	0.00	30.172 
21:20	59.6	59.6	59.6	67	48.6	0	0	---	0.00	30.172 
21:25	59.3	59.3	59.3	67	48.3	0	0	---	0.00	30.172 
21:30	59.0	59.0	59.0	68	48.5	0	0	---	0.00	30.179 
21:35	58.9	58.9	58.9	69	48.7	0	0	---	0.00	30.179 
21:40	58.6	58.6	58.6	69	48.5	0	0	---	0.00	30.179 
21:45	58.3	58.3	58.3	71	48.9	0	0	---	0.00	30.178 
21:50	58.1	58.1	58.1	72	49.1	0	0	---	0.00	30.178 
21:55	58.0	58.0	58.0	73	49.4	0	0	---	0.00	30.178 
22:00	57.6	57.6	57.6	74	49.4	0	0	---	0.00	30.178 
22:05	57.5	57.5	57.5	75	49.6	0	0	---	0.00	30.178 
22:10	57.3	57.3	57.3	76	49.8	0	0	---	0.00	30.178 
22:15	57.0	57.0	57.0	76	49.5	0	0	---	0.00	30.170 
22:20	56.9	56.9	56.9	76	49.4	0	0	---	0.00	30.170 
22:25	56.7	56.7	56.7	76	49.2	0	0	---	0.00	30.170 
22:30	56.6	56.6	56.6	76	49.1	0	0	---	0.00	30.171 
22:35	56.5	56.5	56.5	77	49.4	0	0	---	0.00	30.171 
22:40	56.3	56.3	56.3	77	49.2	0	0	---	0.00	30.171 
22:45	56.2	56.2	56.2	77	49.1	0	0	---	0.00	30.172 
22:50	56.0	56.0	56.0	78	49.2	0	0	---	0.00	30.172 
22:55	55.9	55.9	55.9	78	49.1	0	0	---	0.00	30.172 
23:00	55.7	55.7	55.7	78	48.9	0	0	---	0.00	30.170 
23:05	55.6	55.6	55.6	79	49.2	0	0	---	0.00	30.170 
23:10	55.4	55.4	55.4	79	49.0	0	0	---	0.00	30.170 
23:15	55.1	55.1	55.1	79	48.7	0	0	---	0.00	30.167 
23:20	55.0	55.0	55.0	79	48.6	0	0	---	0.00	30.167 
23:25	54.8	54.8	54.8	79	48.4	0	0	---	0.00	30.167 
23:30	54.7	54.7	54.7	79	48.3	0	0	---	0.00	30.163 
23:35	54.5	54.5	54.5	79	48.1	0	0	---	0.00	30.163 
23:40	54.5	54.5	54.5	80	48.5	0	0	---	0.00	30.163 
23:45	54.4	54.4	54.4	80	48.4	0	0	---	0.00	30.165 
23:50	54.4	54.4	54.4	81	48.7	0	0	---	0.00	30.165 
23:55	54.2	54.2	54.2	81	48.5	0	0	---	0.00	30.165 

CoCoRaHS
IN-AL-39
A2 Web Hosting
Creative Commons License
GoDaddy
search engine by freefind advanced

loaded 2018-11-15 15:55:27 • last modified 2010-11-18 10:43:29
Privacy PolicyDisclaimer
• wx.awcolley.com is powered by PmWiki v.2002016 •
• all content (unless otherwise noted) © 2018 A W Colley